AA3CS-1 Chesapeake Beach MD US current weather conditions

sailwx.info

Wind at 1 knots gusting 4

Air temperature -0.6° C
Dewpoint -9.2° C

Last reported at 2020-Jan-17 13:05 UTC.
Time now 2020-Jan-17 13:42 UTC

Location: N 38°37' W 076°31'.
View on Google Maps.

See reports from other nearby stations

  
Tides and Currents Weather Stations Pressure Air Temp Water Temp Dewpoint Dewpoint Depression Visibility Wind Speed Wind Dir Waves Ship Positions
date/time (UTC)wind fromknots sea level pressurealtimeterstation pressurevisibilityair tempwater tempwave heightnotes
2020-Jan-17 13:05 -0.6
2020-Jan-17 12:55 -0.6
2020-Jan-17 12:45 292 1 gusting 4 -0.6
2020-Jan-17 12:35 315 2 gusting 5 -0.6
2020-Jan-17 12:25 337 1 gusting 3 -0.6
2020-Jan-17 12:15 315 1 gusting 4 -0.6
2020-Jan-17 12:05 -0.6
2020-Jan-17 11:55 337 2 gusting 4 -0.6
2020-Jan-17 11:45 -0.6
2020-Jan-17 11:35 315 2 gusting 6 -0.0
2020-Jan-17 11:25 315 2 gusting 8 -0.0
2020-Jan-17 11:15 292 1 gusting 5 -0.0
2020-Jan-17 11:05 315 1 gusting 4 -0.0
2020-Jan-17 10:55 292 2 gusting 8 -0.0
2020-Jan-17 10:45 315 3 gusting 8 -0.0
2020-Jan-17 10:35 315 2 gusting 5 0.6
2020-Jan-17 10:25 315 2 gusting 6 -0.0
2020-Jan-17 10:15 315 3 gusting 6 0.6
2020-Jan-17 10:05 157 1 gusting 5 0.6
2020-Jan-17 09:55 0.6
2020-Jan-17 09:45 315 1 gusting 2 0.6
2020-Jan-17 09:35 292 2 gusting 6 0.6
2020-Jan-17 09:25 270 0 gusting 6 0.6
2020-Jan-17 09:15 315 2 gusting 5 0.6
2020-Jan-17 09:05 315 1 gusting 6 0.6
2020-Jan-17 08:55 315 1 gusting 4 1.1
2020-Jan-17 08:45 292 2 gusting 8 1.1
2020-Jan-17 08:35 315 3 gusting 7 1.1
2020-Jan-17 08:25 315 1 gusting 5 1.1
2020-Jan-17 08:15 1.1
2020-Jan-17 08:05 315 2 gusting 6 1.1
2020-Jan-17 07:55 337 1 gusting 5 1.7
2020-Jan-17 07:45 315 1 gusting 6 1.7
2020-Jan-17 07:35 292 2 gusting 6 1.7
2020-Jan-17 07:25 315 4 gusting 10 1.7
2020-Jan-17 07:15 292 3 gusting 8 1.7
2020-Jan-17 07:05 292 2 gusting 5 1.7
2020-Jan-17 06:55 270 2 gusting 5 1.7
2020-Jan-17 06:45 292 1 gusting 8 1.7
2020-Jan-17 06:35 315 2 gusting 9 1.7
2020-Jan-17 06:25 157 0 gusting 3 1.7
2020-Jan-17 06:15 315 0 gusting 3 1.7
2020-Jan-17 06:05 315 2 gusting 8 1.7
2020-Jan-17 05:55 315 1 gusting 6 1.7
2020-Jan-17 05:45 315 0 gusting 2 2.2
2020-Jan-17 05:35 270 3 gusting 7 2.2
2020-Jan-17 05:25 022 2 gusting 6 2.2
2020-Jan-17 05:15 337 1 gusting 5 2.2
2020-Jan-17 05:05 337 2 gusting 5 2.2
2020-Jan-17 04:55 315 2 gusting 5 2.8
2020-Jan-17 04:45 292 2 gusting 7 2.8
2020-Jan-17 04:35 270 2 gusting 4 2.8
2020-Jan-17 04:25 292 2 gusting 7 2.8
2020-Jan-17 04:15 337 2 gusting 5 2.8
2020-Jan-17 04:05 292 1 gusting 3 2.8
2020-Jan-17 03:55 337 2 gusting 6 2.8
2020-Jan-17 03:45 2.8
2020-Jan-17 03:35 292 2 gusting 5 2.8
2020-Jan-17 03:25 315 1 gusting 5 3.3
2020-Jan-17 03:15 292 2 gusting 6 3.3
2020-Jan-17 03:05 315 2 gusting 6 3.3
2020-Jan-17 02:55 292 2 gusting 7 3.3
2020-Jan-17 02:45 247 1 gusting 3 3.3
2020-Jan-17 02:35 315 1 gusting 4 3.3
2020-Jan-17 02:25 315 2 gusting 6 3.9
2020-Jan-17 02:15 315 3 gusting 7 3.9
2020-Jan-17 02:05 315 4 gusting 8 4.4
2020-Jan-17 01:55 315 3 gusting 9 4.4
2020-Jan-17 01:45 4.4
2020-Jan-17 01:35 315 2 gusting 6 5.0
2020-Jan-17 01:25 292 2 gusting 7 5.0
2020-Jan-17 01:15 337 1 gusting 3 5.0
2020-Jan-17 01:05 337 2 gusting 10 5.0
2020-Jan-17 00:55 292 3 gusting 7 5.6
2020-Jan-17 00:45 315 3 gusting 8 5.6
2020-Jan-17 00:35 292 2 gusting 6 5.6
2020-Jan-17 00:25 315 3 gusting 9 6.1
2020-Jan-17 00:15 292 3 gusting 6 6.1
2020-Jan-17 00:05 315 2 gusting 8 6.1
2020-Jan-16 23:55 315 2 gusting 6 6.7
2020-Jan-16 23:45 315 3 gusting 7 6.7
2020-Jan-16 23:35 315 3 gusting 10 6.7
2020-Jan-16 23:25 315 3 gusting 7 7.2
2020-Jan-16 23:15 315 4 gusting 9 7.8
2020-Jan-16 23:05 315 5 gusting 11 7.8
2020-Jan-16 22:55 292 2 gusting 6 7.8
2020-Jan-16 22:45 315 1 gusting 3 7.8
2020-Jan-16 22:35 247 1 gusting 3 7.8
2020-Jan-16 22:25 292 1 gusting 3 8.3
2020-Jan-16 22:15 337 2 gusting 6 8.3
2020-Jan-16 22:05 315 1 gusting 6 8.3
2020-Jan-16 21:55 315 1 gusting 4 8.3
2020-Jan-16 21:45 337 1 gusting 3 8.3
2020-Jan-16 21:35 337 1 gusting 4 8.9
2020-Jan-16 21:25 315 4 gusting 9 8.9
2020-Jan-16 21:15 292 3 gusting 11 8.9
2020-Jan-16 21:05 292 3 gusting 6 9.4
2020-Jan-16 20:55 270 2 gusting 7 9.4
2020-Jan-16 20:45 315 4 gusting 8 9.4
2020-Jan-16 20:35 292 2 gusting 6 10.0
2020-Jan-16 20:25 337 3 gusting 10 10.6
2020-Jan-16 20:15 292 3 gusting 6 10.6
2020-Jan-16 20:05 315 2 gusting 13 11.1
2020-Jan-16 19:55 292 3 gusting 9 11.1
2020-Jan-16 19:45 090 2 gusting 7 11.7
2020-Jan-16 19:35 292 4 gusting 7 11.7
2020-Jan-16 19:25 315 2 gusting 6 11.7
2020-Jan-16 19:15 315 2 gusting 6 12.2
2020-Jan-16 19:05 337 3 gusting 9 12.2
2020-Jan-16 18:55 270 3 gusting 7 12.2
2020-Jan-16 18:45 315 4 gusting 9 12.2
2020-Jan-16 18:35 315 2 gusting 6 12.2
2020-Jan-16 18:25 337 3 gusting 7 12.8
2020-Jan-16 18:15 337 3 gusting 8 12.2
2020-Jan-16 18:05 292 3 gusting 6 12.8
2020-Jan-16 17:55 337 2 gusting 8 12.8
2020-Jan-16 17:45 315 4 gusting 8 12.8
2020-Jan-16 17:35 292 3 gusting 9 12.8
2020-Jan-16 17:25 292 3 gusting 7 12.8
2020-Jan-16 17:15 292 3 gusting 7 12.8
2020-Jan-16 17:05 315 4 gusting 9 13.3
2020-Jan-16 16:55 292 2 gusting 8 13.3
2020-Jan-16 16:45 315 2 gusting 8 13.3
2020-Jan-16 16:35 315 2 gusting 6 12.8
2020-Jan-16 16:25 292 2 gusting 6 12.8
2020-Jan-16 16:15 292 2 gusting 6 12.2
2020-Jan-16 16:05 270 1 gusting 5 11.7
2020-Jan-16 15:55 292 2 gusting 7 11.7
2020-Jan-16 15:45 292 3 gusting 8 11.7
2020-Jan-16 15:35 315 4 gusting 9 12.2
2020-Jan-16 15:25 292 3 gusting 8 12.8
2020-Jan-16 15:15 315 2 gusting 6 12.2
2020-Jan-16 15:05 292 3 gusting 7 12.2
2020-Jan-16 14:55 315 4 gusting 7 12.8
2020-Jan-16 14:45 292 4 gusting 9 12.8
2020-Jan-16 14:35 337 3 gusting 7 12.8
2020-Jan-16 14:25 270 2 gusting 8 12.8
2020-Jan-16 14:15 270 0 gusting 3 12.8
2020-Jan-16 14:05 292 0 gusting 3 12.8
2020-Jan-16 13:55 292 0 gusting 3 12.8
2020-Jan-16 13:45 315 1 gusting 3 12.8
2020-Jan-16 13:35 292 2 gusting 6 12.8
2020-Jan-16 13:25 292 2 gusting 8 12.8
2020-Jan-16 13:15 270 2 gusting 6 12.8
2020-Jan-16 13:05 292 1 gusting 6 12.2
2020-Jan-16 12:55 247 1 gusting 3 12.8
2020-Jan-16 12:45 292 2 gusting 6 12.8
2020-Jan-16 12:35 292 4 gusting 8 12.8
2020-Jan-16 12:25 270 2 gusting 6 12.8
2020-Jan-16 12:15 315 3 gusting 8 12.2
2020-Jan-16 12:05 11.7
2020-Jan-16 11:55 270 1 gusting 6 11.7
2020-Jan-16 11:45 292 1 gusting 7 11.1
2020-Jan-16 11:35 270 1 gusting 6 11.1
2020-Jan-16 11:25 247 0 gusting 1 11.1
2020-Jan-16 11:15 292 0 gusting 2 11.1
2020-Jan-16 11:05 270 0 gusting 2 11.1
2020-Jan-16 10:55 315 1 gusting 3 11.1
2020-Jan-16 10:45 292 0 gusting 2 11.1
2020-Jan-16 10:35 315 1 gusting 3 11.1
2020-Jan-16 10:25 315 1 gusting 3 11.1
2020-Jan-16 10:15 247 0 gusting 2 11.1
2020-Jan-16 10:05 270 1 gusting 3 11.1
2020-Jan-16 09:55 225 0 gusting 2 11.1
2020-Jan-16 09:45 270 1 gusting 3 11.1
2020-Jan-16 09:35 292 0 gusting 2 11.1
2020-Jan-16 09:25 270 1 gusting 2 11.1
2020-Jan-16 09:15 270 1 gusting 2 11.1
2020-Jan-16 09:05 292 0 gusting 3 11.1
2020-Jan-16 08:55 247 1 gusting 5 11.1
2020-Jan-16 08:45 315 1 gusting 7 11.1
2020-Jan-16 08:35 157 1 gusting 5 11.1
2020-Jan-16 08:25 270 1 gusting 6 11.1
2020-Jan-16 08:15 180 1 gusting 7 10.6
2020-Jan-16 08:05 247 1 gusting 3 10.6
2020-Jan-16 07:55 225 1 gusting 7 10.6
2020-Jan-16 07:45 315 0 gusting 5 10.6
2020-Jan-16 07:35 202 1 gusting 3 10.0
2020-Jan-16 07:25 067 0 gusting 2 10.0
2020-Jan-16 07:15 202 0 gusting 5 10.0
2020-Jan-16 07:05 225 0 gusting 2 9.4
2020-Jan-16 06:55 247 0 gusting 3 9.4
2020-Jan-16 06:45 8.9
2020-Jan-16 06:35 022 0 gusting 1 8.9
2020-Jan-16 06:25 022 0 gusting 2 8.3
2020-Jan-16 06:15 202 0 gusting 1 7.8
2020-Jan-16 06:05 7.8
2020-Jan-16 05:55 7.2
2020-Jan-16 05:45 7.2
2020-Jan-16 05:35 7.2
2020-Jan-16 05:25 7.2
2020-Jan-16 05:15 7.2
2020-Jan-16 05:05 7.2
2020-Jan-16 04:55 135 0 gusting 1 7.2
2020-Jan-16 04:45 135 0 gusting 2 7.2
2020-Jan-16 04:35 7.2
2020-Jan-16 04:25 7.2
2020-Jan-16 04:15 7.2
2020-Jan-16 04:05 157 0 gusting 3 7.2
2020-Jan-16 03:55 7.2
2020-Jan-16 03:45 7.2
2020-Jan-16 03:35 7.2
2020-Jan-16 03:25 6.7
2020-Jan-16 03:15 6.7
2020-Jan-16 03:05 7.2
2020-Jan-16 02:55 7.2
2020-Jan-16 02:45 180 0 gusting 4 7.2
2020-Jan-16 02:35 7.2
2020-Jan-16 02:25 157 0 gusting 1 7.2
2020-Jan-16 02:15 157 0 gusting 1 7.2
2020-Jan-16 02:05 157 0 gusting 1 7.2
2020-Jan-16 01:55 135 0 gusting 3 7.2
2020-Jan-16 01:45 180 0 gusting 2 7.8
2020-Jan-16 01:35 135 0 gusting 2 7.8
2020-Jan-16 01:25 7.8
2020-Jan-16 01:15 157 0 gusting 2 7.8
2020-Jan-16 01:05 112 0 gusting 1 7.8
2020-Jan-16 00:55 180 0 gusting 1 7.8
2020-Jan-16 00:45 180 0 gusting 3 7.8
2020-Jan-16 00:35 7.8
2020-Jan-16 00:25 7.8
2020-Jan-16 00:15 202 0 gusting 2 7.8
2020-Jan-16 00:05 7.8
2020-Jan-15 23:55 202 0 gusting 1 7.8
2020-Jan-15 23:45 7.8
2020-Jan-15 23:35 7.8
2020-Jan-15 23:25 7.8
2020-Jan-15 23:15 7.8
2020-Jan-15 23:05 7.8
2020-Jan-15 22:55 7.8
2020-Jan-15 22:45 7.8
2020-Jan-15 22:35 8.3
2020-Jan-15 22:25 8.3
2020-Jan-15 22:15 8.3
2020-Jan-15 22:05 8.9
2020-Jan-15 21:55 135 0 gusting 1 8.9
2020-Jan-15 21:45 157 0 gusting 1 9.4
2020-Jan-15 21:35 157 0 gusting 1 9.4
2020-Jan-15 21:25 9.4
2020-Jan-15 21:15 9.4
2020-Jan-15 21:05 9.4
2020-Jan-15 20:55 157 0 gusting 1 8.9
2020-Jan-15 20:45 157 0 gusting 1 8.9
2020-Jan-15 20:35 157 0 gusting 1 9.4
2020-Jan-15 20:25 157 0 gusting 1 9.4
2020-Jan-15 20:15 157 0 gusting 1 9.4
2020-Jan-15 20:05 157 0 gusting 2 8.9
2020-Jan-15 19:55 135 0 gusting 2 8.9
2020-Jan-15 19:45 135 0 gusting 2 8.9
2020-Jan-15 19:35 135 1 gusting 3 8.9
2020-Jan-15 19:25 135 1 gusting 2 8.9
2020-Jan-15 19:15 112 1 gusting 2 8.9
2020-Jan-15 19:05 135 1 gusting 2 8.9
2020-Jan-15 18:55 157 1 gusting 2 8.9
2020-Jan-15 18:45 112 1 gusting 3 8.3
2020-Jan-15 18:35 135 1 gusting 4 8.3
2020-Jan-15 18:25 112 1 gusting 4 8.3
2020-Jan-15 18:15 090 1 gusting 3 8.3
2020-Jan-15 18:05 135 1 gusting 3 8.3
2020-Jan-15 17:55 157 1 gusting 3 8.3
2020-Jan-15 17:45 135 2 gusting 3 8.9
2020-Jan-15 17:35 090 1 gusting 3 8.9
2020-Jan-15 17:25 090 2 gusting 3 8.9
2020-Jan-15 17:15 135 2 gusting 4 8.9
2020-Jan-15 17:05 157 1 gusting 3 9.4
2020-Jan-15 16:55 112 1 gusting 3 9.4
2020-Jan-15 16:45 157 1 gusting 3 8.9
2020-Jan-15 16:35 067 1 gusting 3 8.9
2020-Jan-15 16:25 135 1 gusting 5 9.4
2020-Jan-15 16:15 135 1 gusting 2 9.4
2020-Jan-15 16:05 112 0 gusting 2 8.9
2020-Jan-15 15:55 112 0 gusting 2 8.9
2020-Jan-15 15:45 067 0 gusting 1 9.4
2020-Jan-15 15:35 067 1 gusting 2 8.9
2020-Jan-15 15:25 337 0 gusting 2 8.3
2020-Jan-15 15:15 202 0 gusting 1 8.3
2020-Jan-15 15:05 7.8
2020-Jan-15 14:55 7.8
2020-Jan-15 14:45 7.8
2020-Jan-15 14:35 225 0 gusting 2 7.8
2020-Jan-15 14:25 7.8
2020-Jan-15 14:15 7.8
2020-Jan-15 14:05 7.8
2020-Jan-15 13:55 7.8
2020-Jan-15 13:45 7.2
2020-Jan-15 13:35 7.2
2020-Jan-15 13:25 7.2
2020-Jan-15 13:15 7.2
2020-Jan-15 13:05 7.2